createdAt,value
2022-09-11T03:01:59.565Z,13.80
2022-09-11T03:04:26.789Z,13.90
2022-09-11T03:06:54.417Z,13.90
2022-09-11T03:09:21.982Z,13.90
2022-09-11T03:11:50.100Z,14.00
2022-09-11T03:14:17.307Z,14.00
2022-09-11T03:16:44.443Z,13.90
2022-09-11T03:19:12.139Z,14.00
2022-09-11T03:21:39.678Z,13.90
2022-09-11T03:24:08.610Z,14.00
2022-09-11T03:26:37.039Z,13.90
2022-09-11T03:29:04.670Z,13.90
2022-09-11T03:31:33.136Z,13.90
2022-09-11T03:34:02.483Z,13.90
2022-09-11T03:36:29.643Z,13.80
2022-09-11T03:38:56.997Z,13.80
2022-09-11T03:41:26.073Z,13.80
2022-09-11T03:43:53.375Z,13.80
2022-09-11T03:46:20.517Z,13.70
2022-09-11T03:48:47.648Z,13.80
2022-09-11T03:51:15.378Z,13.90
2022-09-11T03:53:43.087Z,13.90
2022-09-11T03:56:11.614Z,13.90
2022-09-11T03:58:38.850Z,13.90
2022-09-11T04:01:13.936Z,13.90
2022-09-11T04:03:42.292Z,13.90
2022-09-11T04:06:10.619Z,14.00
2022-09-11T04:08:41.209Z,14.00
2022-09-11T04:11:11.530Z,14.00
2022-09-11T04:13:40.857Z,14.00
2022-09-11T04:16:12.644Z,14.00
2022-09-11T04:18:41.624Z,14.00
2022-09-11T04:21:14.577Z,13.90
2022-09-11T04:23:42.029Z,13.90
2022-09-11T04:26:20.600Z,13.90
2022-09-11T04:28:48.278Z,13.90
2022-09-11T04:31:17.207Z,13.90
2022-09-11T04:33:45.323Z,13.90
2022-09-11T04:36:17.735Z,13.90
2022-09-11T04:38:45.987Z,13.90
2022-09-11T04:41:14.709Z,13.80
2022-09-11T04:43:43.079Z,13.80
2022-09-11T04:46:13.539Z,13.80
2022-09-11T04:48:47.715Z,13.90
2022-09-11T04:51:22.359Z,13.90
2022-09-11T04:53:51.364Z,13.90
2022-09-11T04:56:20.777Z,13.90
2022-09-11T04:59:00.532Z,14.00
2022-09-11T05:01:30.012Z,13.90
2022-09-11T05:03:57.485Z,14.00
2022-09-11T05:06:24.902Z,14.10
2022-09-11T05:08:52.043Z,13.90
2022-09-11T05:11:22.523Z,14.00
2022-09-11T05:13:49.614Z,14.00
2022-09-11T05:16:17.936Z,14.10
2022-09-11T05:18:51.854Z,14.10
2022-09-11T05:21:21.067Z,14.10
2022-09-11T05:23:50.485Z,14.00
2022-09-11T05:26:20.263Z,14.00
2022-09-11T05:28:47.847Z,14.00
2022-09-11T05:31:17.220Z,14.00
2022-09-11T05:33:47.694Z,14.00
2022-09-11T05:36:16.107Z,14.10
2022-09-11T05:38:43.524Z,14.10
2022-09-11T05:41:12.584Z,14.10
2022-09-11T05:43:41.037Z,14.10
2022-09-11T05:46:11.750Z,14.20
2022-09-11T05:48:39.387Z,14.20
2022-09-11T05:51:10.538Z,14.10
2022-09-11T05:53:38.028Z,14.20
2022-09-11T05:56:13.467Z,14.20
2022-09-11T05:58:40.618Z,14.20
2022-09-11T06:01:10.298Z,14.20
2022-09-11T06:03:38.709Z,14.20
2022-09-11T06:06:11.468Z,14.20
2022-09-11T06:08:40.450Z,14.30
2022-09-11T06:11:08.193Z,14.30
2022-09-11T06:13:40.110Z,14.20
2022-09-11T06:16:21.426Z,14.20
2022-09-11T06:18:50.131Z,14.20
2022-09-11T06:21:20.498Z,14.20
2022-09-11T06:23:49.617Z,14.30
2022-09-11T06:26:19.277Z,14.30
2022-09-11T06:28:47.638Z,14.30
2022-09-11T06:31:18.171Z,14.30
2022-09-11T06:33:46.295Z,14.30
2022-09-11T06:36:16.049Z,14.40
2022-09-11T06:38:44.510Z,14.50
2022-09-11T06:41:15.453Z,14.50
2022-09-11T06:43:43.978Z,14.70
2022-09-11T06:46:17.332Z,14.70
2022-09-11T06:48:46.218Z,14.80
2022-09-11T06:51:16.362Z,14.90
2022-09-11T06:53:44.982Z,15.00
2022-09-11T06:56:17.419Z,15.10
2022-09-11T06:58:46.115Z,15.00
2022-09-11T07:01:16.241Z,15.00
2022-09-11T07:03:47.840Z,14.90
2022-09-11T07:06:20.447Z,15.00
2022-09-11T07:09:02.663Z,15.10
2022-09-11T07:11:34.779Z,15.10
2022-09-11T07:14:05.747Z,15.30
2022-09-11T07:16:34.735Z,15.30
2022-09-11T07:19:03.974Z,15.40
2022-09-11T07:21:31.733Z,15.40
2022-09-11T07:24:00.096Z,15.40
2022-09-11T07:26:29.927Z,15.40
2022-09-11T07:28:58.960Z,15.50
2022-09-11T07:31:31.068Z,15.40
2022-09-11T07:33:58.419Z,15.30
2022-09-11T07:36:30.222Z,15.40
2022-09-11T07:38:58.690Z,15.40
2022-09-11T07:41:27.003Z,15.60
2022-09-11T07:44:00.139Z,15.60
2022-09-11T07:46:27.767Z,15.80
2022-09-11T07:48:55.430Z,15.80
2022-09-11T07:51:22.996Z,15.90
2022-09-11T07:53:51.910Z,15.80
2022-09-11T07:56:26.802Z,15.70
2022-09-11T07:58:55.301Z,15.70
2022-09-11T08:01:27.775Z,15.80
2022-09-11T08:03:59.411Z,15.90
2022-09-11T08:06:29.596Z,15.80
2022-09-11T08:09:00.042Z,15.90
2022-09-11T08:11:29.008Z,16.10
2022-09-11T08:13:56.687Z,16.70
2022-09-11T08:16:25.891Z,17.60
2022-09-11T08:18:53.350Z,18.00
2022-09-11T08:21:21.388Z,18.10
2022-09-11T08:23:49.132Z,18.00
2022-09-11T08:26:21.882Z,17.90
2022-09-11T08:28:51.262Z,17.60
2022-09-11T08:31:20.506Z,17.60
2022-09-11T08:33:49.268Z,17.40
2022-09-11T08:36:16.605Z,17.50
2022-09-11T08:38:44.679Z,17.50
2022-09-11T08:41:28.550Z,17.30
2022-09-11T08:44:09.947Z,17.40
2022-09-11T08:46:41.400Z,17.40
2022-09-11T08:49:49.679Z,17.00
2022-09-11T08:52:16.936Z,17.10
2022-09-11T08:54:47.425Z,17.30
2022-09-11T08:57:32.936Z,17.30
2022-09-11T09:00:23.121Z,17.30
2022-09-11T09:03:13.101Z,17.30
2022-09-11T09:05:53.696Z,17.30
2022-09-11T09:08:45.984Z,17.10
2022-09-11T09:11:44.669Z,17.20
2022-09-11T09:14:35.561Z,17.10
2022-09-11T09:17:08.524Z,17.20
2022-09-11T09:19:46.397Z,17.20
2022-09-11T09:22:49.832Z,17.40
2022-09-11T09:25:22.679Z,17.70
2022-09-11T09:27:54.942Z,18.10
2022-09-11T09:30:24.651Z,18.20
2022-09-11T09:33:15.689Z,18.40
2022-09-11T09:35:45.186Z,18.30
2022-09-11T09:38:26.362Z,18.30
2022-09-11T09:41:31.736Z,18.30
2022-09-11T09:44:40.666Z,18.50
2022-09-11T09:47:12.241Z,18.60
2022-09-11T09:49:39.877Z,18.90
2022-09-11T09:52:19.634Z,19.30
2022-09-11T09:54:56.999Z,19.30
2022-09-11T09:57:39.239Z,19.50
2022-09-11T10:00:09.882Z,19.50
2022-09-11T10:02:58.159Z,19.70
2022-09-11T10:05:31.955Z,19.90
2022-09-11T10:08:07.326Z,19.80
2022-09-11T10:10:40.437Z,19.80
2022-09-11T10:13:25.377Z,19.90
2022-09-11T10:15:55.541Z,19.70
2022-09-11T10:18:37.637Z,19.70
2022-09-11T10:21:19.721Z,19.30
2022-09-11T10:24:02.925Z,19.20
2022-09-11T10:26:45.857Z,19.30
2022-09-11T10:29:26.203Z,19.60
2022-09-11T10:31:55.747Z,20.10
2022-09-11T10:34:25.892Z,19.60
2022-09-11T10:37:00.886Z,19.90
2022-09-11T10:39:32.385Z,19.80
2022-09-11T10:42:07.877Z,19.70
2022-09-11T10:44:35.174Z,19.70
2022-09-11T10:47:26.930Z,19.70
2022-09-11T10:50:22.396Z,19.80
2022-09-11T10:52:58.830Z,19.60
2022-09-11T10:55:36.269Z,19.70
2022-09-11T10:58:13.602Z,19.70
2022-09-11T11:00:40.751Z,19.90
2022-09-11T11:03:18.269Z,19.90
2022-09-11T11:06:02.574Z,19.60
2022-09-11T11:09:12.140Z,19.60
2022-09-11T11:11:51.981Z,19.90
2022-09-11T11:14:44.887Z,19.80
2022-09-11T11:17:23.863Z,19.90
2022-09-11T11:20:06.666Z,19.90
2022-09-11T11:22:56.475Z,20.30
2022-09-11T11:25:54.636Z,20.30
2022-09-11T11:28:35.055Z,20.40
2022-09-11T11:31:34.433Z,20.20
2022-09-11T11:34:27.221Z,20.60
2022-09-11T11:37:10.054Z,21.00
2022-09-11T11:40:06.530Z,20.90
2022-09-11T11:42:39.891Z,20.70
2022-09-11T11:45:37.342Z,20.80
2022-09-11T11:48:20.575Z,20.90
2022-09-11T11:50:52.912Z,20.70
2022-09-11T11:53:58.964Z,20.50
2022-09-11T11:56:45.313Z,20.80
2022-09-11T11:59:24.972Z,20.70
2022-09-11T12:02:16.419Z,20.60
2022-09-11T12:04:52.275Z,20.10
2022-09-11T12:07:32.743Z,20.00
2022-09-11T12:10:01.963Z,19.90
2022-09-11T12:12:42.965Z,20.10
2022-09-11T12:15:19.877Z,20.30
2022-09-11T12:17:49.968Z,20.60
2022-09-11T12:20:38.121Z,20.70
2022-09-11T12:23:27.560Z,20.60
2022-09-11T12:26:24.263Z,20.20
2022-09-11T12:29:16.139Z,20.20
2022-09-11T12:31:52.118Z,20.60
2022-09-11T12:34:26.006Z,20.90
2022-09-11T12:37:00.734Z,20.90
2022-09-11T12:39:39.044Z,20.80
2022-09-11T12:42:24.335Z,20.90
2022-09-11T12:44:51.454Z,20.90
2022-09-11T12:47:23.561Z,20.80
2022-09-11T12:50:07.129Z,20.80
2022-09-11T12:52:46.411Z,20.80
2022-09-11T12:55:33.947Z,20.90
2022-09-11T12:58:05.506Z,20.80
2022-09-11T13:00:46.171Z,20.90
2022-09-11T13:03:26.514Z,21.20
2022-09-11T13:06:24.006Z,21.00
2022-09-11T13:08:59.869Z,21.10
2022-09-11T13:11:37.371Z,21.00
2022-09-11T13:14:06.737Z,21.20
2022-09-11T13:16:37.171Z,21.10
2022-09-11T13:19:10.257Z,21.10
2022-09-11T13:21:40.462Z,21.00
2022-09-11T13:24:30.391Z,21.20
2022-09-11T13:27:05.801Z,21.50
2022-09-11T13:29:35.527Z,21.60
2022-09-11T13:32:11.332Z,21.70
2022-09-11T13:34:42.481Z,21.70
2022-09-11T13:37:16.309Z,21.50
2022-09-11T13:39:45.179Z,21.40
2022-09-11T13:42:19.750Z,21.20
2022-09-11T13:44:51.496Z,21.30
2022-09-11T13:47:24.377Z,21.40
2022-09-11T13:49:57.872Z,21.40
2022-09-11T13:52:27.866Z,21.40
2022-09-11T13:55:00.495Z,21.30
2022-09-11T13:57:30.249Z,21.50
2022-09-11T13:59:58.893Z,21.50
2022-09-11T14:02:35.220Z,21.50
2022-09-11T14:05:04.682Z,21.60
2022-09-11T14:07:35.086Z,21.50
2022-09-11T14:10:08.636Z,21.50
2022-09-11T14:13:10.757Z,21.50
2022-09-11T14:15:58.026Z,21.70
2022-09-11T14:18:34.320Z,21.70
2022-09-11T14:21:06.261Z,21.80
2022-09-11T14:23:43.040Z,21.90
2022-09-11T14:26:21.054Z,21.60
2022-09-11T14:28:56.796Z,21.60
2022-09-11T14:31:31.353Z,21.70
2022-09-11T14:34:20.695Z,21.70
2022-09-11T14:37:09.240Z,21.70
2022-09-11T14:39:39.020Z,21.70
2022-09-11T14:42:14.324Z,21.50
2022-09-11T14:44:42.206Z,21.40
2022-09-11T14:47:17.343Z,21.00
2022-09-11T14:49:48.147Z,20.90
2022-09-11T14:52:18.459Z,20.90
2022-09-11T14:54:46.416Z,20.80
2022-09-11T14:57:22.923Z,20.80
2022-09-11T14:59:51.236Z,20.70
2022-09-11T15:02:25.380Z,20.70
2022-09-11T15:04:53.914Z,20.70
2022-09-11T15:07:24.663Z,20.70
2022-09-11T15:09:55.336Z,20.70
2022-09-11T15:12:22.835Z,20.80
2022-09-11T15:14:57.035Z,20.90
2022-09-11T15:17:25.608Z,20.90
2022-09-11T15:19:53.419Z,20.90
2022-09-11T15:22:20.807Z,20.90
2022-09-11T15:24:49.759Z,20.90
2022-09-11T15:27:19.093Z,21.00
2022-09-11T15:29:46.260Z,21.00
2022-09-11T15:32:14.440Z,21.00
2022-09-11T15:34:42.367Z,20.90
2022-09-11T15:37:11.692Z,20.90
2022-09-11T15:39:39.066Z,20.90
2022-09-11T15:42:07.482Z,20.90
2022-09-11T15:44:36.073Z,20.90
2022-09-11T15:47:04.212Z,20.80
2022-09-11T15:49:31.725Z,20.70
2022-09-11T15:51:59.724Z,20.70
2022-09-11T15:54:27.505Z,20.60
2022-09-11T15:56:54.890Z,20.60
2022-09-11T15:59:22.518Z,20.40
2022-09-11T16:01:49.783Z,20.40
2022-09-11T16:04:20.196Z,20.40
2022-09-11T16:06:48.626Z,20.20
2022-09-11T16:09:21.885Z,20.20
2022-09-11T16:11:50.464Z,20.20
2022-09-11T16:14:20.070Z,20.10
2022-09-11T16:16:47.654Z,20.10
2022-09-11T16:19:20.477Z,20.10
2022-09-11T16:21:48.978Z,19.90
2022-09-11T16:24:16.726Z,20.00
2022-09-11T16:26:45.267Z,19.90
2022-09-11T16:29:14.882Z,19.80
2022-09-11T16:31:42.793Z,19.70
2022-09-11T16:34:11.168Z,19.70
2022-09-11T16:36:38.821Z,19.40
2022-09-11T16:39:11.514Z,19.30
2022-09-11T16:41:38.852Z,19.20
2022-09-11T16:44:08.336Z,19.00
2022-09-11T16:46:36.241Z,18.80
2022-09-11T16:49:04.303Z,18.70
2022-09-11T16:51:32.193Z,18.50
2022-09-11T16:53:59.662Z,18.40
2022-09-11T16:56:27.516Z,18.10
2022-09-11T16:58:54.749Z,18.10
2022-09-11T17:01:24.489Z,18.20
2022-09-11T17:03:53.564Z,17.90
2022-09-11T17:06:22.985Z,17.90
2022-09-11T17:08:51.338Z,17.90
2022-09-11T17:11:21.611Z,17.90
2022-09-11T17:13:49.045Z,17.80
2022-09-11T17:16:20.341Z,17.70
2022-09-11T17:18:49.447Z,17.70
2022-09-11T17:21:17.408Z,17.60
2022-09-11T17:23:45.037Z,17.60
2022-09-11T17:26:15.160Z,17.40
2022-09-11T17:28:44.287Z,17.40
2022-09-11T17:31:14.689Z,17.30
2022-09-11T17:33:42.996Z,17.30
2022-09-11T17:36:11.703Z,17.10
2022-09-11T17:38:40.204Z,17.10
2022-09-11T17:41:08.751Z,17.00
2022-09-11T17:43:37.708Z,16.90
2022-09-11T17:46:16.897Z,16.70
2022-09-11T17:48:45.689Z,16.70
2022-09-11T17:51:20.202Z,16.60
2022-09-11T17:53:50.284Z,16.60
2022-09-11T17:56:20.737Z,16.40
2022-09-11T17:58:52.565Z,16.40
2022-09-11T18:01:20.261Z,16.30
2022-09-11T18:03:56.578Z,16.30
2022-09-11T18:06:36.420Z,16.10
2022-09-11T18:09:12.023Z,16.00
2022-09-11T18:11:40.489Z,15.90
2022-09-11T18:14:07.652Z,15.70
2022-09-11T18:16:35.305Z,15.60
2022-09-11T18:19:04.382Z,15.60
2022-09-11T18:21:33.188Z,15.50
2022-09-11T18:24:03.642Z,15.50
2022-09-11T18:26:34.334Z,15.40
2022-09-11T18:29:09.885Z,15.50
2022-09-11T18:31:42.867Z,15.40
2022-09-11T18:34:15.317Z,15.40
2022-09-11T18:36:43.523Z,15.30
2022-09-11T18:39:12.012Z,15.30
2022-09-11T18:41:39.360Z,15.10
2022-09-11T18:44:11.088Z,15.10
2022-09-11T18:46:38.419Z,14.80
2022-09-11T18:49:06.710Z,14.80
2022-09-11T18:51:35.231Z,14.80
2022-09-11T18:54:03.526Z,14.80
2022-09-11T18:56:31.774Z,14.80
2022-09-11T18:59:00.244Z,14.80
2022-09-11T19:01:29.569Z,14.70
2022-09-11T19:03:57.024Z,14.50
2022-09-11T19:06:26.631Z,14.50
2022-09-11T19:08:54.868Z,14.50
2022-09-11T19:11:24.449Z,14.50
2022-09-11T19:13:54.242Z,14.50
2022-09-11T19:16:22.252Z,14.60
2022-09-11T19:18:49.592Z,14.50
2022-09-11T19:21:20.767Z,14.50
2022-09-11T19:23:50.619Z,14.50
2022-09-11T19:26:21.872Z,14.60
2022-09-11T19:28:50.350Z,14.60
2022-09-11T19:31:28.442Z,14.50
2022-09-11T19:33:57.383Z,14.50
2022-09-11T19:36:26.393Z,14.40
2022-09-11T19:39:01.168Z,14.30
2022-09-11T19:41:37.374Z,14.30
2022-09-11T19:44:06.932Z,14.20
2022-09-11T19:46:34.926Z,14.10
2022-09-11T19:49:03.600Z,14.10
2022-09-11T19:51:42.157Z,14.10
2022-09-11T19:54:11.799Z,14.10
2022-09-11T19:56:39.684Z,14.00
2022-09-11T19:59:08.143Z,14.00
2022-09-11T20:01:35.895Z,14.00
2022-09-11T20:04:03.415Z,14.00
2022-09-11T20:06:33.116Z,13.90
2022-09-11T20:11:49.092Z,13.90
2022-09-11T20:14:16.511Z,13.90
2022-09-11T20:16:44.124Z,13.80
2022-09-11T20:19:11.303Z,13.70
2022-09-11T20:21:38.698Z,13.70
2022-09-11T20:24:09.197Z,13.70
2022-09-11T20:26:36.597Z,13.70
2022-09-11T20:29:12.352Z,13.70
2022-09-11T20:31:48.662Z,13.70
2022-09-11T20:34:17.757Z,13.60
2022-09-11T20:36:45.746Z,13.50
2022-09-11T20:39:14.062Z,13.40
2022-09-11T20:41:41.337Z,13.30
2022-09-11T20:44:08.887Z,13.20
2022-09-11T20:46:36.153Z,12.90
2022-09-11T20:49:04.784Z,12.80
2022-09-11T20:51:33.339Z,12.70
2022-09-11T20:54:00.898Z,12.80
2022-09-11T20:56:28.751Z,12.80
2022-09-11T20:58:56.534Z,12.80
